sensor_id;sensor_type;location;lat;lon;timestamp;temperature;humidity
3705;DHT22;1868;48.918;9.438;2023-06-26T00:01:59;17.80;97.40
3705;DHT22;1868;48.918;9.438;2023-06-26T00:04:28;17.80;97.40
3705;DHT22;1868;48.918;9.438;2023-06-26T00:06:59;17.70;97.40
3705;DHT22;1868;48.918;9.438;2023-06-26T00:09:28;17.70;97.40
3705;DHT22;1868;48.918;9.438;2023-06-26T00:11:57;17.70;97.40
3705;DHT22;1868;48.918;9.438;2023-06-26T00:14:26;17.70;97.40
3705;DHT22;1868;48.918;9.438;2023-06-26T00:16:56;17.60;97.40
3705;DHT22;1868;48.918;9.438;2023-06-26T00:19:26;17.60;97.40
3705;DHT22;1868;48.918;9.438;2023-06-26T00:21:56;17.60;97.40
3705;DHT22;1868;48.918;9.438;2023-06-26T00:24:27;17.60;97.40
3705;DHT22;1868;48.918;9.438;2023-06-26T00:26:56;17.50;97.40
3705;DHT22;1868;48.918;9.438;2023-06-26T00:29:26;17.50;97.40
3705;DHT22;1868;48.918;9.438;2023-06-26T00:31:58;17.40;97.40
3705;DHT22;1868;48.918;9.438;2023-06-26T00:34:28;17.40;97.40
3705;DHT22;1868;48.918;9.438;2023-06-26T00:36:57;17.40;97.40
3705;DHT22;1868;48.918;9.438;2023-06-26T00:39:28;17.30;97.40
3705;DHT22;1868;48.918;9.438;2023-06-26T00:42:01;17.20;97.40
3705;DHT22;1868;48.918;9.438;2023-06-26T00:44:30;17.20;97.40
3705;DHT22;1868;48.918;9.438;2023-06-26T00:46:59;17.20;97.40
3705;DHT22;1868;48.918;9.438;2023-06-26T00:49:28;17.10;97.40
3705;DHT22;1868;48.918;9.438;2023-06-26T00:51:57;17.10;97.40
3705;DHT22;1868;48.918;9.438;2023-06-26T00:54:28;17.10;97.40
3705;DHT22;1868;48.918;9.438;2023-06-26T00:56:57;17.00;97.40
3705;DHT22;1868;48.918;9.438;2023-06-26T00:59:28;17.00;97.40
3705;DHT22;1868;48.918;9.438;2023-06-26T01:01:58;16.90;97.40
3705;DHT22;1868;48.918;9.438;2023-06-26T01:04:27;16.90;97.40
3705;DHT22;1868;48.918;9.438;2023-06-26T01:06:59;16.90;97.40
3705;DHT22;1868;48.918;9.438;2023-06-26T01:09:33;16.90;97.40
3705;DHT22;1868;48.918;9.438;2023-06-26T01:12:06;16.80;97.40
3705;DHT22;1868;48.918;9.438;2023-06-26T01:14:38;16.80;97.40
3705;DHT22;1868;48.918;9.438;2023-06-26T01:17:08;16.80;97.40
3705;DHT22;1868;48.918;9.438;2023-06-26T01:19:39;16.80;97.40
3705;DHT22;1868;48.918;9.438;2023-06-26T01:22:18;16.80;97.40
3705;DHT22;1868;48.918;9.438;2023-06-26T01:25:13;16.80;97.40
3705;DHT22;1868;48.918;9.438;2023-06-26T01:27:50;16.70;97.40
3705;DHT22;1868;48.918;9.438;2023-06-26T01:30:21;16.70;97.40
3705;DHT22;1868;48.918;9.438;2023-06-26T01:32:52;16.70;97.40
3705;DHT22;1868;48.918;9.438;2023-06-26T01:35:22;16.70;97.40
3705;DHT22;1868;48.918;9.438;2023-06-26T01:37:52;16.70;97.40
3705;DHT22;1868;48.918;9.438;2023-06-26T01:40:23;16.60;97.40
3705;DHT22;1868;48.918;9.438;2023-06-26T01:42:59;16.60;97.40
3705;DHT22;1868;48.918;9.438;2023-06-26T01:45:33;16.60;97.40
3705;DHT22;1868;48.918;9.438;2023-06-26T01:48:07;16.60;97.40
3705;DHT22;1868;48.918;9.438;2023-06-26T01:50:43;16.50;97.40
3705;DHT22;1868;48.918;9.438;2023-06-26T01:53:16;16.50;97.40
3705;DHT22;1868;48.918;9.438;2023-06-26T01:55:52;16.50;97.40
3705;DHT22;1868;48.918;9.438;2023-06-26T01:58:32;16.50;97.40
3705;DHT22;1868;48.918;9.438;2023-06-26T02:01:01;16.40;97.40
3705;DHT22;1868;48.918;9.438;2023-06-26T02:03:32;16.40;97.40
3705;DHT22;1868;48.918;9.438;2023-06-26T02:06:01;16.40;97.40
3705;DHT22;1868;48.918;9.438;2023-06-26T02:08:32;16.40;97.40
3705;DHT22;1868;48.918;9.438;2023-06-26T02:11:02;16.30;97.40
3705;DHT22;1868;48.918;9.438;2023-06-26T02:13:36;16.30;97.40
3705;DHT22;1868;48.918;9.438;2023-06-26T02:16:06;16.30;97.40
3705;DHT22;1868;48.918;9.438;2023-06-26T02:18:37;16.30;97.40
3705;DHT22;1868;48.918;9.438;2023-06-26T02:21:09;16.30;97.40
3705;DHT22;1868;48.918;9.438;2023-06-26T02:23:38;16.30;97.40
3705;DHT22;1868;48.918;9.438;2023-06-26T02:26:06;16.20;97.40
3705;DHT22;1868;48.918;9.438;2023-06-26T02:28:36;16.20;97.40
3705;DHT22;1868;48.918;9.438;2023-06-26T02:31:05;16.20;97.40
3705;DHT22;1868;48.918;9.438;2023-06-26T02:33:36;16.20;97.40
3705;DHT22;1868;48.918;9.438;2023-06-26T02:36:06;16.20;97.40
3705;DHT22;1868;48.918;9.438;2023-06-26T02:38:35;16.20;97.40
3705;DHT22;1868;48.918;9.438;2023-06-26T02:41:06;16.10;97.40
3705;DHT22;1868;48.918;9.438;2023-06-26T02:43:44;16.10;97.40
3705;DHT22;1868;48.918;9.438;2023-06-26T02:46:13;16.10;97.40
3705;DHT22;1868;48.918;9.438;2023-06-26T02:48:45;16.00;97.40
3705;DHT22;1868;48.918;9.438;2023-06-26T02:51:14;16.00;97.40
3705;DHT22;1868;48.918;9.438;2023-06-26T02:53:44;16.00;97.40
3705;DHT22;1868;48.918;9.438;2023-06-26T02:56:14;16.00;97.40
3705;DHT22;1868;48.918;9.438;2023-06-26T02:58:45;16.00;97.40
3705;DHT22;1868;48.918;9.438;2023-06-26T03:01:16;15.90;97.40
3705;DHT22;1868;48.918;9.438;2023-06-26T03:03:47;15.90;97.40
3705;DHT22;1868;48.918;9.438;2023-06-26T03:06:18;15.80;97.40
3705;DHT22;1868;48.918;9.438;2023-06-26T03:08:49;15.80;97.40
3705;DHT22;1868;48.918;9.438;2023-06-26T03:11:19;15.80;97.40
3705;DHT22;1868;48.918;9.438;2023-06-26T03:13:51;15.70;97.40
3705;DHT22;1868;48.918;9.438;2023-06-26T03:16:20;15.70;97.40
3705;DHT22;1868;48.918;9.438;2023-06-26T03:18:50;15.60;97.40
3705;DHT22;1868;48.918;9.438;2023-06-26T03:21:23;15.60;97.40
3705;DHT22;1868;48.918;9.438;2023-06-26T03:23:53;15.60;97.40
3705;DHT22;1868;48.918;9.438;2023-06-26T03:26:22;15.60;97.40
3705;DHT22;1868;48.918;9.438;2023-06-26T03:29:00;15.60;97.40
3705;DHT22;1868;48.918;9.438;2023-06-26T03:31:29;15.60;97.40
3705;DHT22;1868;48.918;9.438;2023-06-26T03:33:58;15.60;97.40
3705;DHT22;1868;48.918;9.438;2023-06-26T03:36:28;15.60;97.40
3705;DHT22;1868;48.918;9.438;2023-06-26T03:38:58;15.50;97.40
3705;DHT22;1868;48.918;9.438;2023-06-26T03:41:28;15.50;97.40
3705;DHT22;1868;48.918;9.438;2023-06-26T03:43:57;15.50;97.40
3705;DHT22;1868;48.918;9.438;2023-06-26T03:46:36;15.50;97.40
3705;DHT22;1868;48.918;9.438;2023-06-26T03:49:05;15.60;97.40
3705;DHT22;1868;48.918;9.438;2023-06-26T03:51:37;15.60;97.40
3705;DHT22;1868;48.918;9.438;2023-06-26T03:54:07;15.60;97.40
3705;DHT22;1868;48.918;9.438;2023-06-26T03:56:38;15.60;97.40
3705;DHT22;1868;48.918;9.438;2023-06-26T03:59:07;15.60;97.40
3705;DHT22;1868;48.918;9.438;2023-06-26T04:01:39;15.60;97.40
3705;DHT22;1868;48.918;9.438;2023-06-26T04:04:09;15.70;97.40
3705;DHT22;1868;48.918;9.438;2023-06-26T04:06:38;15.70;97.40
3705;DHT22;1868;48.918;9.438;2023-06-26T04:09:07;15.70;97.40
3705;DHT22;1868;48.918;9.438;2023-06-26T04:11:37;15.80;97.40
3705;DHT22;1868;48.918;9.438;2023-06-26T04:14:06;15.80;97.40
3705;DHT22;1868;48.918;9.438;2023-06-26T04:16:35;15.90;97.40
3705;DHT22;1868;48.918;9.438;2023-06-26T04:19:06;15.90;97.40
3705;DHT22;1868;48.918;9.438;2023-06-26T04:21:37;16.00;97.40
3705;DHT22;1868;48.918;9.438;2023-06-26T04:24:07;16.00;97.40
3705;DHT22;1868;48.918;9.438;2023-06-26T04:26:41;16.10;97.40
3705;DHT22;1868;48.918;9.438;2023-06-26T04:29:13;16.20;97.40
3705;DHT22;1868;48.918;9.438;2023-06-26T04:31:43;16.30;97.40
3705;DHT22;1868;48.918;9.438;2023-06-26T04:34:15;16.30;97.40
3705;DHT22;1868;48.918;9.438;2023-06-26T04:36:46;16.40;97.40
3705;DHT22;1868;48.918;9.438;2023-06-26T04:39:17;16.50;97.40
3705;DHT22;1868;48.918;9.438;2023-06-26T04:41:46;16.60;97.40
3705;DHT22;1868;48.918;9.438;2023-06-26T04:44:16;16.70;97.40
3705;DHT22;1868;48.918;9.438;2023-06-26T04:46:47;16.80;97.40
3705;DHT22;1868;48.918;9.438;2023-06-26T04:49:20;16.80;97.40
3705;DHT22;1868;48.918;9.438;2023-06-26T04:51:50;16.90;97.40
3705;DHT22;1868;48.918;9.438;2023-06-26T04:54:20;17.00;97.40
3705;DHT22;1868;48.918;9.438;2023-06-26T04:56:50;17.10;97.40
3705;DHT22;1868;48.918;9.438;2023-06-26T04:59:20;17.10;97.40
3705;DHT22;1868;48.918;9.438;2023-06-26T05:01:48;17.20;97.40
3705;DHT22;1868;48.918;9.438;2023-06-26T05:04:18;17.30;97.40
3705;DHT22;1868;48.918;9.438;2023-06-26T05:06:49;17.40;97.40
3705;DHT22;1868;48.918;9.438;2023-06-26T05:09:20;17.50;97.40
3705;DHT22;1868;48.918;9.438;2023-06-26T05:11:51;17.60;97.40
3705;DHT22;1868;48.918;9.438;2023-06-26T05:14:23;17.70;97.40
3705;DHT22;1868;48.918;9.438;2023-06-26T05:16:54;17.80;97.40
3705;DHT22;1868;48.918;9.438;2023-06-26T05:19:24;18.00;97.40
3705;DHT22;1868;48.918;9.438;2023-06-26T05:21:53;18.10;97.40
3705;DHT22;1868;48.918;9.438;2023-06-26T05:24:24;18.20;97.40
3705;DHT22;1868;48.918;9.438;2023-06-26T05:26:54;18.30;97.40
3705;DHT22;1868;48.918;9.438;2023-06-26T05:29:24;18.50;97.40
3705;DHT22;1868;48.918;9.438;2023-06-26T05:31:53;18.60;97.40
3705;DHT22;1868;48.918;9.438;2023-06-26T05:34:27;18.70;97.40
3705;DHT22;1868;48.918;9.438;2023-06-26T05:36:59;18.90;97.40
3705;DHT22;1868;48.918;9.438;2023-06-26T05:39:29;19.00;97.40
3705;DHT22;1868;48.918;9.438;2023-06-26T05:42:00;19.10;97.40
3705;DHT22;1868;48.918;9.438;2023-06-26T05:44:33;19.30;97.40
3705;DHT22;1868;48.918;9.438;2023-06-26T05:47:02;19.40;97.40
3705;DHT22;1868;48.918;9.438;2023-06-26T05:49:33;19.60;97.40
3705;DHT22;1868;48.918;9.438;2023-06-26T05:52:07;19.80;97.40
3705;DHT22;1868;48.918;9.438;2023-06-26T05:54:39;19.90;97.40
3705;DHT22;1868;48.918;9.438;2023-06-26T05:57:10;20.10;97.40
3705;DHT22;1868;48.918;9.438;2023-06-26T05:59:43;20.30;97.40
3705;DHT22;1868;48.918;9.438;2023-06-26T06:02:14;20.50;97.40
3705;DHT22;1868;48.918;9.438;2023-06-26T06:04:44;20.70;97.40
3705;DHT22;1868;48.918;9.438;2023-06-26T06:07:14;20.90;97.40
3705;DHT22;1868;48.918;9.438;2023-06-26T06:09:43;21.10;97.40
3705;DHT22;1868;48.918;9.438;2023-06-26T06:12:12;21.30;97.40
3705;DHT22;1868;48.918;9.438;2023-06-26T06:14:41;21.40;97.40
3705;DHT22;1868;48.918;9.438;2023-06-26T06:17:10;21.60;97.40
3705;DHT22;1868;48.918;9.438;2023-06-26T06:19:39;21.80;97.40
3705;DHT22;1868;48.918;9.438;2023-06-26T06:22:09;22.00;97.40
3705;DHT22;1868;48.918;9.438;2023-06-26T06:24:38;22.10;97.40
3705;DHT22;1868;48.918;9.438;2023-06-26T06:27:09;22.30;97.40
3705;DHT22;1868;48.918;9.438;2023-06-26T06:29:39;22.50;97.40
3705;DHT22;1868;48.918;9.438;2023-06-26T06:32:08;22.70;97.40
3705;DHT22;1868;48.918;9.438;2023-06-26T06:34:37;22.90;97.40
3705;DHT22;1868;48.918;9.438;2023-06-26T06:37:08;23.10;97.40
3705;DHT22;1868;48.918;9.438;2023-06-26T06:39:37;23.30;97.40
3705;DHT22;1868;48.918;9.438;2023-06-26T06:42:07;23.50;96.80
3705;DHT22;1868;48.918;9.438;2023-06-26T06:44:36;23.70;96.20
3705;DHT22;1868;48.918;9.438;2023-06-26T06:47:05;24.00;95.30
3705;DHT22;1868;48.918;9.438;2023-06-26T06:49:34;24.20;94.80
3705;DHT22;1868;48.918;9.438;2023-06-26T06:52:04;24.30;92.90
3705;DHT22;1868;48.918;9.438;2023-06-26T06:54:51;24.50;92.80
3705;DHT22;1868;48.918;9.438;2023-06-26T06:57:21;24.70;91.70
3705;DHT22;1868;48.918;9.438;2023-06-26T06:59:50;24.80;91.90
3705;DHT22;1868;48.918;9.438;2023-06-26T07:02:20;25.00;91.30
3705;DHT22;1868;48.918;9.438;2023-06-26T07:04:49;25.10;91.40
3705;DHT22;1868;48.918;9.438;2023-06-26T07:07:18;25.30;90.80
3705;DHT22;1868;48.918;9.438;2023-06-26T07:09:51;25.40;90.40
3705;DHT22;1868;48.918;9.438;2023-06-26T07:12:20;25.50;90.60
3705;DHT22;1868;48.918;9.438;2023-06-26T07:14:50;25.70;87.10
3705;DHT22;1868;48.918;9.438;2023-06-26T07:17:21;25.80;88.20
3705;DHT22;1868;48.918;9.438;2023-06-26T07:19:51;26.00;87.50
3705;DHT22;1868;48.918;9.438;2023-06-26T07:22:20;26.10;84.70
3705;DHT22;1868;48.918;9.438;2023-06-26T07:24:51;26.20;81.90
3705;DHT22;1868;48.918;9.438;2023-06-26T07:27:21;26.40;81.50
3705;DHT22;1868;48.918;9.438;2023-06-26T07:29:50;26.50;78.70
3705;DHT22;1868;48.918;9.438;2023-06-26T07:32:19;26.60;79.90
3705;DHT22;1868;48.918;9.438;2023-06-26T07:34:48;26.80;79.90
3705;DHT22;1868;48.918;9.438;2023-06-26T07:37:16;26.90;73.20
3705;DHT22;1868;48.918;9.438;2023-06-26T07:39:45;27.00;75.20
3705;DHT22;1868;48.918;9.438;2023-06-26T07:42:17;27.10;77.10
3705;DHT22;1868;48.918;9.438;2023-06-26T07:44:47;27.30;73.00
3705;DHT22;1868;48.918;9.438;2023-06-26T07:47:17;27.40;73.90
3705;DHT22;1868;48.918;9.438;2023-06-26T07:49:46;27.50;73.50
3705;DHT22;1868;48.918;9.438;2023-06-26T07:52:15;27.70;75.00
3705;DHT22;1868;48.918;9.438;2023-06-26T07:54:47;27.80;73.30
3705;DHT22;1868;48.918;9.438;2023-06-26T07:57:18;28.00;73.70
3705;DHT22;1868;48.918;9.438;2023-06-26T07:59:49;28.10;72.60
3705;DHT22;1868;48.918;9.438;2023-06-26T08:02:18;28.20;71.70
3705;DHT22;1868;48.918;9.438;2023-06-26T08:04:48;28.30;69.10
3705;DHT22;1868;48.918;9.438;2023-06-26T08:07:18;28.40;71.50
3705;DHT22;1868;48.918;9.438;2023-06-26T08:09:48;28.60;69.40
3705;DHT22;1868;48.918;9.438;2023-06-26T08:12:18;28.70;67.20
3705;DHT22;1868;48.918;9.438;2023-06-26T08:14:47;28.80;66.80
3705;DHT22;1868;48.918;9.438;2023-06-26T08:17:16;28.80;66.60
3705;DHT22;1868;48.918;9.438;2023-06-26T08:19:47;29.00;67.00
3705;DHT22;1868;48.918;9.438;2023-06-26T08:22:15;29.10;68.30
3705;DHT22;1868;48.918;9.438;2023-06-26T08:24:45;29.20;68.10
3705;DHT22;1868;48.918;9.438;2023-06-26T08:27:14;29.30;65.90
3705;DHT22;1868;48.918;9.438;2023-06-26T08:29:45;29.40;67.60
3705;DHT22;1868;48.918;9.438;2023-06-26T08:32:14;29.60;66.40
3705;DHT22;1868;48.918;9.438;2023-06-26T08:34:43;29.70;67.00
3705;DHT22;1868;48.918;9.438;2023-06-26T08:37:15;29.80;66.60
3705;DHT22;1868;48.918;9.438;2023-06-26T08:39:43;29.90;65.90
3705;DHT22;1868;48.918;9.438;2023-06-26T08:42:12;30.00;65.00
3705;DHT22;1868;48.918;9.438;2023-06-26T08:44:42;30.00;63.80
3705;DHT22;1868;48.918;9.438;2023-06-26T08:47:30;30.00;64.00
3705;DHT22;1868;48.918;9.438;2023-06-26T08:50:07;30.10;64.80
3705;DHT22;1868;48.918;9.438;2023-06-26T08:52:42;30.20;64.00
3705;DHT22;1868;48.918;9.438;2023-06-26T08:55:13;30.20;63.30
3705;DHT22;1868;48.918;9.438;2023-06-26T08:57:46;30.30;63.50
3705;DHT22;1868;48.918;9.438;2023-06-26T09:00:17;30.40;65.00
3705;DHT22;1868;48.918;9.438;2023-06-26T09:02:48;30.50;64.80
3705;DHT22;1868;48.918;9.438;2023-06-26T09:05:20;30.60;63.30
3705;DHT22;1868;48.918;9.438;2023-06-26T09:07:49;30.70;62.30
3705;DHT22;1868;48.918;9.438;2023-06-26T09:10:18;30.70;61.00
3705;DHT22;1868;48.918;9.438;2023-06-26T09:12:48;30.80;62.30
3705;DHT22;1868;48.918;9.438;2023-06-26T09:15:19;30.80;64.20
3705;DHT22;1868;48.918;9.438;2023-06-26T09:17:56;30.80;61.80
3705;DHT22;1868;48.918;9.438;2023-06-26T09:20:28;31.00;62.70
3705;DHT22;1868;48.918;9.438;2023-06-26T09:22:57;31.20;61.60
3705;DHT22;1868;48.918;9.438;2023-06-26T09:25:28;31.30;61.80
3705;DHT22;1868;48.918;9.438;2023-06-26T09:27:59;31.30;60.90
3705;DHT22;1868;48.918;9.438;2023-06-26T09:30:32;31.50;61.00
3705;DHT22;1868;48.918;9.438;2023-06-26T09:33:14;31.60;60.10
3705;DHT22;1868;48.918;9.438;2023-06-26T09:35:45;31.80;59.90
3705;DHT22;1868;48.918;9.438;2023-06-26T09:38:15;31.80;58.70
3705;DHT22;1868;48.918;9.438;2023-06-26T09:40:45;32.00;58.60
3705;DHT22;1868;48.918;9.438;2023-06-26T09:43:15;32.00;59.00
3705;DHT22;1868;48.918;9.438;2023-06-26T09:45:46;32.20;58.30
3705;DHT22;1868;48.918;9.438;2023-06-26T09:48:17;32.30;59.00
3705;DHT22;1868;48.918;9.438;2023-06-26T09:50:48;32.40;58.90
3705;DHT22;1868;48.918;9.438;2023-06-26T09:53:37;32.70;58.00
3705;DHT22;1868;48.918;9.438;2023-06-26T09:56:07;33.10;57.00
3705;DHT22;1868;48.918;9.438;2023-06-26T09:58:38;33.30;56.70
3705;DHT22;1868;48.918;9.438;2023-06-26T10:01:08;33.70;55.80
3705;DHT22;1868;48.918;9.438;2023-06-26T10:03:38;33.90;55.80
3705;DHT22;1868;48.918;9.438;2023-06-26T10:06:09;34.20;54.20
3705;DHT22;1868;48.918;9.438;2023-06-26T10:08:40;34.50;53.90
3705;DHT22;1868;48.918;9.438;2023-06-26T10:11:14;34.70;53.50
3705;DHT22;1868;48.918;9.438;2023-06-26T10:13:47;34.90;52.50
3705;DHT22;1868;48.918;9.438;2023-06-26T10:16:29;35.00;51.40
3705;DHT22;1868;48.918;9.438;2023-06-26T10:19:06;35.20;51.40
3705;DHT22;1868;48.918;9.438;2023-06-26T10:21:38;35.30;50.70
3705;DHT22;1868;48.918;9.438;2023-06-26T10:24:13;35.60;50.70
3705;DHT22;1868;48.918;9.438;2023-06-26T10:26:44;35.70;50.70
3705;DHT22;1868;48.918;9.438;2023-06-26T10:29:16;35.60;50.70
3705;DHT22;1868;48.918;9.438;2023-06-26T10:31:51;35.70;51.00
3705;DHT22;1868;48.918;9.438;2023-06-26T10:34:23;35.80;49.70
3705;DHT22;1868;48.918;9.438;2023-06-26T10:36:59;35.90;48.70
3705;DHT22;1868;48.918;9.438;2023-06-26T10:39:46;36.00;48.40
3705;DHT22;1868;48.918;9.438;2023-06-26T10:42:18;36.20;48.70
3705;DHT22;1868;48.918;9.438;2023-06-26T10:45:09;36.50;47.90
3705;DHT22;1868;48.918;9.438;2023-06-26T10:47:41;36.30;48.10
3705;DHT22;1868;48.918;9.438;2023-06-26T10:50:20;35.60;48.70
3705;DHT22;1868;48.918;9.438;2023-06-26T10:53:09;35.20;49.60
3705;DHT22;1868;48.918;9.438;2023-06-26T10:55:42;34.80;50.30
3705;DHT22;1868;48.918;9.438;2023-06-26T10:58:31;34.80;50.80
3705;DHT22;1868;48.918;9.438;2023-06-26T11:01:23;35.10;50.00
3705;DHT22;1868;48.918;9.438;2023-06-26T11:04:07;35.30;49.60
3705;DHT22;1868;48.918;9.438;2023-06-26T11:06:40;35.60;49.40
3705;DHT22;1868;48.918;9.438;2023-06-26T11:09:24;35.70;49.10
3705;DHT22;1868;48.918;9.438;2023-06-26T11:11:58;35.90;49.00
3705;DHT22;1868;48.918;9.438;2023-06-26T11:14:32;35.90;48.70
3705;DHT22;1868;48.918;9.438;2023-06-26T11:17:04;35.80;49.10
3705;DHT22;1868;48.918;9.438;2023-06-26T11:19:34;35.70;49.90
3705;DHT22;1868;48.918;9.438;2023-06-26T11:22:09;35.60;50.20
3705;DHT22;1868;48.918;9.438;2023-06-26T11:24:39;35.50;50.70
3705;DHT22;1868;48.918;9.438;2023-06-26T11:27:08;35.70;51.10
3705;DHT22;1868;48.918;9.438;2023-06-26T11:29:37;35.70;51.40
3705;DHT22;1868;48.918;9.438;2023-06-26T11:32:09;35.90;51.10
3705;DHT22;1868;48.918;9.438;2023-06-26T11:34:38;35.80;51.90
3705;DHT22;1868;48.918;9.438;2023-06-26T11:37:16;35.70;52.30
3705;DHT22;1868;48.918;9.438;2023-06-26T11:39:48;35.70;52.60
3705;DHT22;1868;48.918;9.438;2023-06-26T11:42:18;35.50;52.30
3705;DHT22;1868;48.918;9.438;2023-06-26T11:44:55;35.50;52.90
3705;DHT22;1868;48.918;9.438;2023-06-26T11:47:29;35.80;52.80
3705;DHT22;1868;48.918;9.438;2023-06-26T11:50:04;36.00;52.30
3705;DHT22;1868;48.918;9.438;2023-06-26T11:52:36;36.20;52.20
3705;DHT22;1868;48.918;9.438;2023-06-26T11:55:06;36.20;52.00
3705;DHT22;1868;48.918;9.438;2023-06-26T11:57:35;36.20;52.20
3705;DHT22;1868;48.918;9.438;2023-06-26T12:00:13;36.10;52.50
3705;DHT22;1868;48.918;9.438;2023-06-26T12:02:44;36.30;52.90
3705;DHT22;1868;48.918;9.438;2023-06-26T12:05:15;36.60;53.20
3705;DHT22;1868;48.918;9.438;2023-06-26T12:07:47;36.90;51.70
3705;DHT22;1868;48.918;9.438;2023-06-26T12:10:19;36.90;52.60
3705;DHT22;1868;48.918;9.438;2023-06-26T12:12:49;37.10;52.20
3705;DHT22;1868;48.918;9.438;2023-06-26T12:15:21;36.90;52.60
3705;DHT22;1868;48.918;9.438;2023-06-26T12:17:52;36.50;52.00
3705;DHT22;1868;48.918;9.438;2023-06-26T12:20:23;36.60;51.40
3705;DHT22;1868;48.918;9.438;2023-06-26T12:22:59;36.30;52.30
3705;DHT22;1868;48.918;9.438;2023-06-26T12:25:33;35.80;53.50
3705;DHT22;1868;48.918;9.438;2023-06-26T12:28:02;35.90;53.70
3705;DHT22;1868;48.918;9.438;2023-06-26T12:30:31;35.70;55.10
3705;DHT22;1868;48.918;9.438;2023-06-26T12:33:01;35.40;55.70
3705;DHT22;1868;48.918;9.438;2023-06-26T12:35:33;35.10;56.60
3705;DHT22;1868;48.918;9.438;2023-06-26T12:38:07;35.10;57.40
3705;DHT22;1868;48.918;9.438;2023-06-26T12:40:45;34.30;58.10
3705;DHT22;1868;48.918;9.438;2023-06-26T12:43:25;34.10;59.80
3705;DHT22;1868;48.918;9.438;2023-06-26T12:45:56;34.00;60.10
3705;DHT22;1868;48.918;9.438;2023-06-26T12:48:37;34.10;58.70
3705;DHT22;1868;48.918;9.438;2023-06-26T12:51:10;34.00;58.90
3705;DHT22;1868;48.918;9.438;2023-06-26T12:53:48;34.00;59.80
3705;DHT22;1868;48.918;9.438;2023-06-26T12:56:17;34.10;59.90
3705;DHT22;1868;48.918;9.438;2023-06-26T12:58:48;34.20;59.80
3705;DHT22;1868;48.918;9.438;2023-06-26T13:01:18;34.40;59.50
3705;DHT22;1868;48.918;9.438;2023-06-26T13:03:47;34.40;57.00
3705;DHT22;1868;48.918;9.438;2023-06-26T13:06:16;34.40;58.00
3705;DHT22;1868;48.918;9.438;2023-06-26T13:08:52;34.30;58.70
3705;DHT22;1868;48.918;9.438;2023-06-26T13:11:23;34.50;58.90
3705;DHT22;1868;48.918;9.438;2023-06-26T13:13:53;34.60;58.70
3705;DHT22;1868;48.918;9.438;2023-06-26T13:16:37;34.60;58.40
3705;DHT22;1868;48.918;9.438;2023-06-26T13:19:10;34.30;57.50
3705;DHT22;1868;48.918;9.438;2023-06-26T13:21:40;34.30;58.00
3705;DHT22;1868;48.918;9.438;2023-06-26T13:24:12;34.20;58.60
3705;DHT22;1868;48.918;9.438;2023-06-26T13:26:45;34.00;59.00
3705;DHT22;1868;48.918;9.438;2023-06-26T13:29:14;34.10;58.70
3705;DHT22;1868;48.918;9.438;2023-06-26T13:31:46;34.20;58.60
3705;DHT22;1868;48.918;9.438;2023-06-26T13:34:22;34.20;57.20
3705;DHT22;1868;48.918;9.438;2023-06-26T13:36:53;34.20;57.20
3705;DHT22;1868;48.918;9.438;2023-06-26T13:39:23;34.10;58.00
3705;DHT22;1868;48.918;9.438;2023-06-26T13:41:52;33.90;57.00
3705;DHT22;1868;48.918;9.438;2023-06-26T13:44:21;33.80;55.50
3705;DHT22;1868;48.918;9.438;2023-06-26T13:46:57;33.60;56.30
3705;DHT22;1868;48.918;9.438;2023-06-26T13:49:26;33.60;54.50
3705;DHT22;1868;48.918;9.438;2023-06-26T13:51:55;33.60;55.40
3705;DHT22;1868;48.918;9.438;2023-06-26T13:54:25;33.70;56.00
3705;DHT22;1868;48.918;9.438;2023-06-26T13:56:56;33.60;54.00
3705;DHT22;1868;48.918;9.438;2023-06-26T13:59:31;33.50;54.60
3705;DHT22;1868;48.918;9.438;2023-06-26T14:02:01;33.40;54.20
3705;DHT22;1868;48.918;9.438;2023-06-26T14:04:31;33.10;55.50
3705;DHT22;1868;48.918;9.438;2023-06-26T14:07:00;33.20;56.10
3705;DHT22;1868;48.918;9.438;2023-06-26T14:09:33;33.10;56.00
3705;DHT22;1868;48.918;9.438;2023-06-26T14:12:02;33.10;56.10
3705;DHT22;1868;48.918;9.438;2023-06-26T14:14:33;33.10;54.90
3705;DHT22;1868;48.918;9.438;2023-06-26T14:17:02;33.00;54.80
3705;DHT22;1868;48.918;9.438;2023-06-26T14:19:33;33.10;54.00
3705;DHT22;1868;48.918;9.438;2023-06-26T14:22:02;33.10;53.70
3705;DHT22;1868;48.918;9.438;2023-06-26T14:24:35;33.00;54.00
3705;DHT22;1868;48.918;9.438;2023-06-26T14:27:06;33.00;53.70
3705;DHT22;1868;48.918;9.438;2023-06-26T14:29:35;32.90;53.40
3705;DHT22;1868;48.918;9.438;2023-06-26T14:32:06;33.00;54.00
3705;DHT22;1868;48.918;9.438;2023-06-26T14:34:37;33.10;54.50
3705;DHT22;1868;48.918;9.438;2023-06-26T14:37:08;33.20;53.40
3705;DHT22;1868;48.918;9.438;2023-06-26T14:39:38;33.10;52.60
3705;DHT22;1868;48.918;9.438;2023-06-26T14:42:09;33.10;54.20
3705;DHT22;1868;48.918;9.438;2023-06-26T14:44:43;33.10;53.20
3705;DHT22;1868;48.918;9.438;2023-06-26T14:47:17;33.00;53.10
3705;DHT22;1868;48.918;9.438;2023-06-26T14:49:46;33.00;53.90
3705;DHT22;1868;48.918;9.438;2023-06-26T14:52:17;32.90;52.90
3705;DHT22;1868;48.918;9.438;2023-06-26T14:54:49;32.80;52.80
3705;DHT22;1868;48.918;9.438;2023-06-26T14:57:19;32.70;52.00
3705;DHT22;1868;48.918;9.438;2023-06-26T14:59:48;32.50;52.60
3705;DHT22;1868;48.918;9.438;2023-06-26T15:02:17;32.40;53.20
3705;DHT22;1868;48.918;9.438;2023-06-26T15:04:48;32.40;54.00
3705;DHT22;1868;48.918;9.438;2023-06-26T15:07:19;32.40;54.30
3705;DHT22;1868;48.918;9.438;2023-06-26T15:09:49;32.30;53.70
3705;DHT22;1868;48.918;9.438;2023-06-26T15:12:20;32.10;54.50
3705;DHT22;1868;48.918;9.438;2023-06-26T15:14:51;32.10;54.90
3705;DHT22;1868;48.918;9.438;2023-06-26T15:17:20;32.00;54.80
3705;DHT22;1868;48.918;9.438;2023-06-26T15:19:53;31.80;56.00
3705;DHT22;1868;48.918;9.438;2023-06-26T15:22:23;31.70;56.30
3705;DHT22;1868;48.918;9.438;2023-06-26T15:24:58;31.60;56.40
3705;DHT22;1868;48.918;9.438;2023-06-26T15:27:28;31.50;56.40
3705;DHT22;1868;48.918;9.438;2023-06-26T15:29:58;31.30;56.10
3705;DHT22;1868;48.918;9.438;2023-06-26T15:32:28;31.30;56.70
3705;DHT22;1868;48.918;9.438;2023-06-26T15:35:00;31.10;56.70
3705;DHT22;1868;48.918;9.438;2023-06-26T15:37:32;31.00;56.40
3705;DHT22;1868;48.918;9.438;2023-06-26T15:40:12;30.80;56.70
3705;DHT22;1868;48.918;9.438;2023-06-26T15:42:48;30.70;56.60
3705;DHT22;1868;48.918;9.438;2023-06-26T15:45:17;30.60;57.20
3705;DHT22;1868;48.918;9.438;2023-06-26T15:47:50;30.50;57.70
3705;DHT22;1868;48.918;9.438;2023-06-26T15:50:19;30.40;58.30
3705;DHT22;1868;48.918;9.438;2023-06-26T15:52:50;30.20;58.40
3705;DHT22;1868;48.918;9.438;2023-06-26T15:55:21;30.10;58.70
3705;DHT22;1868;48.918;9.438;2023-06-26T15:57:50;30.00;59.20
3705;DHT22;1868;48.918;9.438;2023-06-26T16:00:21;29.90;59.80
3705;DHT22;1868;48.918;9.438;2023-06-26T16:02:49;29.80;60.10
3705;DHT22;1868;48.918;9.438;2023-06-26T16:05:18;29.80;60.30
3705;DHT22;1868;48.918;9.438;2023-06-26T16:07:47;29.60;60.70
3705;DHT22;1868;48.918;9.438;2023-06-26T16:10:25;29.50;60.90
3705;DHT22;1868;48.918;9.438;2023-06-26T16:12:56;29.40;60.90
3705;DHT22;1868;48.918;9.438;2023-06-26T16:15:27;29.40;61.40
3705;DHT22;1868;48.918;9.438;2023-06-26T16:17:56;29.30;61.40
3705;DHT22;1868;48.918;9.438;2023-06-26T16:20:26;29.30;62.20
3705;DHT22;1868;48.918;9.438;2023-06-26T16:22:55;29.20;63.10
3705;DHT22;1868;48.918;9.438;2023-06-26T16:25:25;29.10;63.10
3705;DHT22;1868;48.918;9.438;2023-06-26T16:27:55;29.00;63.70
3705;DHT22;1868;48.918;9.438;2023-06-26T16:30:24;28.90;63.30